sensor_id;sensor_type;location;lat;lon;timestamp;P1;durP1;ratioP1;P2;durP2;ratioP2
42194;SDS011;27863;49.440;11.102;2023-03-02T00:00:01;14.40;;;12.57;;
42194;SDS011;27863;49.440;11.102;2023-03-02T00:03:02;17.47;;;14.13;;
42194;SDS011;27863;49.440;11.102;2023-03-02T00:06:05;15.40;;;12.97;;
42194;SDS011;27863;49.440;11.102;2023-03-02T00:09:07;18.27;;;12.80;;
42194;SDS011;27863;49.440;11.102;2023-03-02T00:12:08;19.33;;;13.60;;
42194;SDS011;27863;49.440;11.102;2023-03-02T00:15:08;20.03;;;12.97;;
42194;SDS011;27863;49.440;11.102;2023-03-02T00:18:24;13.30;;;11.77;;
42194;SDS011;27863;49.440;11.102;2023-03-02T00:21:25;15.03;;;13.53;;
42194;SDS011;27863;49.440;11.102;2023-03-02T00:24:25;14.47;;;12.57;;
42194;SDS011;27863;49.440;11.102;2023-03-02T00:27:26;15.00;;;13.50;;
42194;SDS011;27863;49.440;11.102;2023-03-02T00:30:30;13.77;;;12.30;;
42194;SDS011;27863;49.440;11.102;2023-03-02T00:33:31;19.23;;;13.13;;
42194;SDS011;27863;49.440;11.102;2023-03-02T00:36:32;15.27;;;13.43;;
42194;SDS011;27863;49.440;11.102;2023-03-02T00:39:34;16.13;;;13.77;;
42194;SDS011;27863;49.440;11.102;2023-03-02T00:42:37;12.70;;;11.40;;
42194;SDS011;27863;49.440;11.102;2023-03-02T00:45:38;14.30;;;12.60;;
42194;SDS011;27863;49.440;11.102;2023-03-02T00:48:38;17.73;;;12.83;;
42194;SDS011;27863;49.440;11.102;2023-03-02T00:51:39;15.93;;;12.33;;
42194;SDS011;27863;49.440;11.102;2023-03-02T00:54:39;15.53;;;11.70;;
42194;SDS011;27863;49.440;11.102;2023-03-02T00:57:40;14.17;;;11.93;;
42194;SDS011;27863;49.440;11.102;2023-03-02T01:00:41;13.67;;;10.77;;
42194;SDS011;27863;49.440;11.102;2023-03-02T01:03:43;17.80;;;12.60;;
42194;SDS011;27863;49.440;11.102;2023-03-02T01:06:43;18.33;;;12.07;;
42194;SDS011;27863;49.440;11.102;2023-03-02T01:09:46;18.80;;;13.13;;
42194;SDS011;27863;49.440;11.102;2023-03-02T01:12:51;18.53;;;11.97;;
42194;SDS011;27863;49.440;11.102;2023-03-02T01:15:59;15.40;;;13.83;;
42194;SDS011;27863;49.440;11.102;2023-03-02T01:19:00;15.73;;;10.57;;
42194;SDS011;27863;49.440;11.102;2023-03-02T01:22:01;17.03;;;12.60;;
42194;SDS011;27863;49.440;11.102;2023-03-02T01:25:02;14.23;;;11.37;;
42194;SDS011;27863;49.440;11.102;2023-03-02T01:28:03;14.97;;;12.20;;
42194;SDS011;27863;49.440;11.102;2023-03-02T01:31:04;14.90;;;12.33;;
42194;SDS011;27863;49.440;11.102;2023-03-02T01:34:05;14.87;;;11.80;;
42194;SDS011;27863;49.440;11.102;2023-03-02T01:37:05;17.43;;;12.83;;
42194;SDS011;27863;49.440;11.102;2023-03-02T01:40:06;13.60;;;11.93;;
42194;SDS011;27863;49.440;11.102;2023-03-02T01:43:11;13.97;;;11.87;;
42194;SDS011;27863;49.440;11.102;2023-03-02T01:46:15;14.60;;;12.67;;
42194;SDS011;27863;49.440;11.102;2023-03-02T01:49:22;13.20;;;11.70;;
42194;SDS011;27863;49.440;11.102;2023-03-02T01:52:30;14.93;;;11.83;;
42194;SDS011;27863;49.440;11.102;2023-03-02T01:55:38;20.23;;;12.30;;
42194;SDS011;27863;49.440;11.102;2023-03-02T01:58:41;15.57;;;11.97;;
42194;SDS011;27863;49.440;11.102;2023-03-02T02:01:43;15.93;;;12.73;;
42194;SDS011;27863;49.440;11.102;2023-03-02T02:04:44;12.90;;;11.33;;
42194;SDS011;27863;49.440;11.102;2023-03-02T02:07:46;13.33;;;11.97;;
42194;SDS011;27863;49.440;11.102;2023-03-02T02:10:46;18.10;;;12.97;;
42194;SDS011;27863;49.440;11.102;2023-03-02T02:13:49;14.03;;;11.53;;
42194;SDS011;27863;49.440;11.102;2023-03-02T02:16:52;15.80;;;12.57;;
42194;SDS011;27863;49.440;11.102;2023-03-02T02:23:26;16.60;;;11.73;;
42194;SDS011;27863;49.440;11.102;2023-03-02T02:26:48;16.27;;;11.47;;
42194;SDS011;27863;49.440;11.102;2023-03-02T02:29:51;13.27;;;11.53;;
42194;SDS011;27863;49.440;11.102;2023-03-02T02:32:52;14.40;;;11.70;;
42194;SDS011;27863;49.440;11.102;2023-03-02T02:35:59;11.90;;;10.63;;
42194;SDS011;27863;49.440;11.102;2023-03-02T02:39:03;15.43;;;12.53;;
42194;SDS011;27863;49.440;11.102;2023-03-02T02:42:06;13.23;;;11.87;;
42194;SDS011;27863;49.440;11.102;2023-03-02T02:45:17;13.50;;;11.27;;
42194;SDS011;27863;49.440;11.102;2023-03-02T02:48:24;15.40;;;11.83;;
42194;SDS011;27863;49.440;11.102;2023-03-02T02:51:27;12.43;;;11.13;;
42194;SDS011;27863;49.440;11.102;2023-03-02T02:54:29;13.97;;;12.47;;
42194;SDS011;27863;49.440;11.102;2023-03-02T02:57:31;15.10;;;11.70;;
42194;SDS011;27863;49.440;11.102;2023-03-02T03:00:31;16.27;;;12.43;;
42194;SDS011;27863;49.440;11.102;2023-03-02T03:03:33;15.63;;;11.67;;
42194;SDS011;27863;49.440;11.102;2023-03-02T03:06:47;16.30;;;11.97;;
42194;SDS011;27863;49.440;11.102;2023-03-02T03:10:00;13.40;;;12.00;;
42194;SDS011;27863;49.440;11.102;2023-03-02T03:13:06;12.83;;;11.50;;
42194;SDS011;27863;49.440;11.102;2023-03-02T03:16:08;18.87;;;13.20;;
42194;SDS011;27863;49.440;11.102;2023-03-02T03:19:19;14.53;;;10.63;;
42194;SDS011;27863;49.440;11.102;2023-03-02T03:22:23;16.17;;;11.97;;
42194;SDS011;27863;49.440;11.102;2023-03-02T03:25:24;18.57;;;12.67;;
42194;SDS011;27863;49.440;11.102;2023-03-02T03:28:27;13.80;;;12.40;;
42194;SDS011;27863;49.440;11.102;2023-03-02T03:31:28;14.20;;;12.63;;
42194;SDS011;27863;49.440;11.102;2023-03-02T03:34:31;15.53;;;12.37;;
42194;SDS011;27863;49.440;11.102;2023-03-02T03:37:33;17.00;;;11.57;;
42194;SDS011;27863;49.440;11.102;2023-03-02T03:40:35;13.30;;;11.87;;
42194;SDS011;27863;49.440;11.102;2023-03-02T03:43:37;17.10;;;12.67;;
42194;SDS011;27863;49.440;11.102;2023-03-02T03:46:37;13.33;;;11.60;;
42194;SDS011;27863;49.440;11.102;2023-03-02T03:49:38;13.13;;;11.77;;
42194;SDS011;27863;49.440;11.102;2023-03-02T03:52:40;15.50;;;11.67;;
42194;SDS011;27863;49.440;11.102;2023-03-02T03:56:01;15.47;;;12.40;;
42194;SDS011;27863;49.440;11.102;2023-03-02T03:59:04;15.13;;;12.30;;
42194;SDS011;27863;49.440;11.102;2023-03-02T04:02:06;14.87;;;12.90;;
42194;SDS011;27863;49.440;11.102;2023-03-02T04:05:13;13.40;;;11.93;;
42194;SDS011;27863;49.440;11.102;2023-03-02T04:08:14;14.33;;;12.83;;
42194;SDS011;27863;49.440;11.102;2023-03-02T04:11:16;19.10;;;13.00;;
42194;SDS011;27863;49.440;11.102;2023-03-02T04:14:17;14.37;;;11.60;;
42194;SDS011;27863;49.440;11.102;2023-03-02T04:17:38;13.33;;;12.00;;
42194;SDS011;27863;49.440;11.102;2023-03-02T04:20:38;15.77;;;13.23;;
42194;SDS011;27863;49.440;11.102;2023-03-02T04:23:39;16.07;;;12.90;;
42194;SDS011;27863;49.440;11.102;2023-03-02T04:26:40;17.77;;;12.43;;
42194;SDS011;27863;49.440;11.102;2023-03-02T04:29:45;16.30;;;12.13;;
42194;SDS011;27863;49.440;11.102;2023-03-02T04:32:46;26.83;;;13.67;;
42194;SDS011;27863;49.440;11.102;2023-03-02T04:35:47;14.53;;;13.03;;
42194;SDS011;27863;49.440;11.102;2023-03-02T04:38:48;16.47;;;13.07;;
42194;SDS011;27863;49.440;11.102;2023-03-02T04:41:48;17.53;;;13.27;;
42194;SDS011;27863;49.440;11.102;2023-03-02T04:44:49;15.00;;;13.13;;
42194;SDS011;27863;49.440;11.102;2023-03-02T04:47:50;18.53;;;11.87;;
42194;SDS011;27863;49.440;11.102;2023-03-02T04:50:52;14.30;;;12.70;;
42194;SDS011;27863;49.440;11.102;2023-03-02T04:53:53;15.93;;;13.40;;
42194;SDS011;27863;49.440;11.102;2023-03-02T04:56:54;13.13;;;11.63;;
42194;SDS011;27863;49.440;11.102;2023-03-02T04:59:55;20.30;;;14.17;;
42194;SDS011;27863;49.440;11.102;2023-03-02T05:02:56;16.33;;;13.43;;
42194;SDS011;27863;49.440;11.102;2023-03-02T05:05:57;16.60;;;13.07;;
42194;SDS011;27863;49.440;11.102;2023-03-02T05:08:57;25.40;;;13.60;;
42194;SDS011;27863;49.440;11.102;2023-03-02T05:12:01;15.83;;;12.97;;
42194;SDS011;27863;49.440;11.102;2023-03-02T05:15:02;17.67;;;11.83;;
42194;SDS011;27863;49.440;11.102;2023-03-02T05:18:04;16.27;;;13.27;;
42194;SDS011;27863;49.440;11.102;2023-03-02T05:21:09;15.60;;;13.63;;
42194;SDS011;27863;49.440;11.102;2023-03-02T05:24:10;16.20;;;12.67;;
42194;SDS011;27863;49.440;11.102;2023-03-02T05:27:11;13.80;;;12.20;;
42194;SDS011;27863;49.440;11.102;2023-03-02T05:30:11;15.10;;;12.87;;
42194;SDS011;27863;49.440;11.102;2023-03-02T05:33:12;15.23;;;12.93;;
42194;SDS011;27863;49.440;11.102;2023-03-02T05:36:14;15.50;;;12.30;;
42194;SDS011;27863;49.440;11.102;2023-03-02T05:39:15;16.37;;;13.23;;
42194;SDS011;27863;49.440;11.102;2023-03-02T05:42:15;16.83;;;13.60;;
42194;SDS011;27863;49.440;11.102;2023-03-02T05:45:21;15.33;;;12.10;;
42194;SDS011;27863;49.440;11.102;2023-03-02T05:48:23;17.13;;;13.30;;
42194;SDS011;27863;49.440;11.102;2023-03-02T05:51:25;15.07;;;11.40;;
42194;SDS011;27863;49.440;11.102;2023-03-02T05:54:26;22.33;;;12.90;;
42194;SDS011;27863;49.440;11.102;2023-03-02T05:57:28;14.33;;;12.47;;
42194;SDS011;27863;49.440;11.102;2023-03-02T06:00:28;16.03;;;13.27;;
42194;SDS011;27863;49.440;11.102;2023-03-02T06:03:29;21.47;;;12.20;;
42194;SDS011;27863;49.440;11.102;2023-03-02T06:06:30;14.70;;;12.10;;
42194;SDS011;27863;49.440;11.102;2023-03-02T06:09:31;15.40;;;13.07;;
42194;SDS011;27863;49.440;11.102;2023-03-02T06:12:31;15.47;;;12.83;;
42194;SDS011;27863;49.440;11.102;2023-03-02T06:15:33;13.30;;;11.87;;
42194;SDS011;27863;49.440;11.102;2023-03-02T06:18:34;15.60;;;11.37;;
42194;SDS011;27863;49.440;11.102;2023-03-02T06:21:36;15.07;;;13.07;;
42194;SDS011;27863;49.440;11.102;2023-03-02T06:24:36;17.80;;;12.77;;
42194;SDS011;27863;49.440;11.102;2023-03-02T06:27:38;16.07;;;13.23;;
42194;SDS011;27863;49.440;11.102;2023-03-02T06:30:40;16.53;;;12.07;;
42194;SDS011;27863;49.440;11.102;2023-03-02T06:33:41;15.73;;;12.70;;
42194;SDS011;27863;49.440;11.102;2023-03-02T06:36:41;17.43;;;13.03;;
42194;SDS011;27863;49.440;11.102;2023-03-02T06:39:42;17.57;;;13.30;;
42194;SDS011;27863;49.440;11.102;2023-03-02T06:42:43;13.50;;;12.10;;
42194;SDS011;27863;49.440;11.102;2023-03-02T06:45:44;14.23;;;12.13;;
42194;SDS011;27863;49.440;11.102;2023-03-02T06:48:44;14.47;;;12.10;;
42194;SDS011;27863;49.440;11.102;2023-03-02T06:51:45;17.83;;;12.97;;
42194;SDS011;27863;49.440;11.102;2023-03-02T06:54:47;15.60;;;12.10;;
42194;SDS011;27863;49.440;11.102;2023-03-02T06:57:48;14.67;;;13.07;;
42194;SDS011;27863;49.440;11.102;2023-03-02T07:00:49;13.33;;;11.77;;
42194;SDS011;27863;49.440;11.102;2023-03-02T07:03:49;14.90;;;12.50;;
42194;SDS011;27863;49.440;11.102;2023-03-02T07:06:50;16.53;;;11.87;;
42194;SDS011;27863;49.440;11.102;2023-03-02T07:09:50;19.87;;;12.50;;
42194;SDS011;27863;49.440;11.102;2023-03-02T07:12:54;42.97;;;13.93;;
42194;SDS011;27863;49.440;11.102;2023-03-02T07:15:55;17.87;;;11.60;;
42194;SDS011;27863;49.440;11.102;2023-03-02T07:18:55;20.27;;;12.93;;
42194;SDS011;27863;49.440;11.102;2023-03-02T07:21:57;16.07;;;12.57;;
42194;SDS011;27863;49.440;11.102;2023-03-02T07:24:58;29.33;;;13.60;;
42194;SDS011;27863;49.440;11.102;2023-03-02T07:28:00;21.53;;;13.10;;
42194;SDS011;27863;49.440;11.102;2023-03-02T07:31:02;25.40;;;12.97;;
42194;SDS011;27863;49.440;11.102;2023-03-02T07:34:02;16.20;;;12.70;;
42194;SDS011;27863;49.440;11.102;2023-03-02T07:37:04;21.40;;;14.07;;
42194;SDS011;27863;49.440;11.102;2023-03-02T07:40:04;23.02;;;12.70;;
42194;SDS011;27863;49.440;11.102;2023-03-02T07:43:05;26.05;;;15.10;;
42194;SDS011;27863;49.440;11.102;2023-03-02T07:46:06;29.98;;;14.57;;
42194;SDS011;27863;49.440;11.102;2023-03-02T07:49:08;14.98;;;13.60;;
42194;SDS011;27863;49.440;11.102;2023-03-02T07:52:10;16.10;;;13.35;;
42194;SDS011;27863;49.440;11.102;2023-03-02T07:55:13;15.23;;;13.52;;
42194;SDS011;27863;49.440;11.102;2023-03-02T07:58:14;14.85;;;13.23;;
42194;SDS011;27863;49.440;11.102;2023-03-02T08:01:15;18.20;;;13.20;;
42194;SDS011;27863;49.440;11.102;2023-03-02T08:04:15;18.13;;;12.38;;
42194;SDS011;27863;49.440;11.102;2023-03-02T08:07:16;16.60;;;14.25;;
42194;SDS011;27863;49.440;11.102;2023-03-02T08:10:17;32.10;;;15.43;;
42194;SDS011;27863;49.440;11.102;2023-03-02T08:13:19;14.75;;;13.38;;
42194;SDS011;27863;49.440;11.102;2023-03-02T08:16:21;25.65;;;14.30;;
42194;SDS011;27863;49.440;11.102;2023-03-02T08:19:23;21.65;;;13.80;;
42194;SDS011;27863;49.440;11.102;2023-03-02T08:22:25;15.52;;;13.82;;
42194;SDS011;27863;49.440;11.102;2023-03-02T08:25:25;35.10;;;14.75;;
42194;SDS011;27863;49.440;11.102;2023-03-02T08:28:26;15.85;;;14.10;;
42194;SDS011;27863;49.440;11.102;2023-03-02T08:31:28;49.72;;;15.10;;
42194;SDS011;27863;49.440;11.102;2023-03-02T08:34:30;23.80;;;13.88;;
42194;SDS011;27863;49.440;11.102;2023-03-02T08:37:30;23.92;;;14.45;;
42194;SDS011;27863;49.440;11.102;2023-03-02T08:40:31;32.75;;;13.60;;
42194;SDS011;27863;49.440;11.102;2023-03-02T08:43:34;27.95;;;12.68;;
42194;SDS011;27863;49.440;11.102;2023-03-02T08:46:36;20.80;;;12.90;;
42194;SDS011;27863;49.440;11.102;2023-03-02T08:49:36;23.85;;;15.35;;
42194;SDS011;27863;49.440;11.102;2023-03-02T08:52:37;19.50;;;13.25;;
42194;SDS011;27863;49.440;11.102;2023-03-02T08:55:37;22.60;;;13.57;;
42194;SDS011;27863;49.440;11.102;2023-03-02T08:58:38;24.20;;;12.90;;
42194;SDS011;27863;49.440;11.102;2023-03-02T09:01:39;31.43;;;14.17;;
42194;SDS011;27863;49.440;11.102;2023-03-02T09:04:40;14.03;;;12.50;;
42194;SDS011;27863;49.440;11.102;2023-03-02T09:07:40;32.67;;;14.80;;
42194;SDS011;27863;49.440;11.102;2023-03-02T09:10:41;100.43;;;21.07;;
42194;SDS011;27863;49.440;11.102;2023-03-02T09:13:42;42.77;;;14.87;;
42194;SDS011;27863;49.440;11.102;2023-03-02T09:16:43;16.00;;;12.13;;
42194;SDS011;27863;49.440;11.102;2023-03-02T09:19:44;47.00;;;13.07;;
42194;SDS011;27863;49.440;11.102;2023-03-02T09:22:45;32.63;;;14.67;;
42194;SDS011;27863;49.440;11.102;2023-03-02T09:25:49;28.47;;;13.30;;
42194;SDS011;27863;49.440;11.102;2023-03-02T09:28:50;29.07;;;13.53;;
42194;SDS011;27863;49.440;11.102;2023-03-02T09:31:53;34.17;;;13.60;;
42194;SDS011;27863;49.440;11.102;2023-03-02T09:34:53;39.33;;;15.27;;
42194;SDS011;27863;49.440;11.102;2023-03-02T09:37:54;19.60;;;12.97;;
42194;SDS011;27863;49.440;11.102;2023-03-02T09:44:59;25.50;;;12.87;;
42194;SDS011;27863;49.440;11.102;2023-03-02T09:47:38;35.37;;;12.33;;
42194;SDS011;27863;49.440;11.102;2023-03-02T09:50:52;18.87;;;12.47;;
42194;SDS011;27863;49.440;11.102;2023-03-02T09:54:22;94.50;;;17.40;;
42194;SDS011;27863;49.440;11.102;2023-03-02T09:57:25;18.07;;;11.90;;
42194;SDS011;27863;49.440;11.102;2023-03-02T10:00:33;86.03;;;16.00;;
42194;SDS011;27863;49.440;11.102;2023-03-02T10:03:38;111.80;;;19.40;;
42194;SDS011;27863;49.440;11.102;2023-03-02T10:06:45;91.50;;;18.77;;
42194;SDS011;27863;49.440;11.102;2023-03-02T10:09:45;39.20;;;14.87;;
42194;SDS011;27863;49.440;11.102;2023-03-02T10:15:55;30.27;;;14.07;;
42194;SDS011;27863;49.440;11.102;2023-03-02T10:19:14;20.53;;;11.63;;
42194;SDS011;27863;49.440;11.102;2023-03-02T10:22:26;13.93;;;12.50;;
42194;SDS011;27863;49.440;11.102;2023-03-02T10:28:54;20.53;;;12.90;;
42194;SDS011;27863;49.440;11.102;2023-03-02T10:32:03;21.73;;;11.67;;
42194;SDS011;27863;49.440;11.102;2023-03-02T10:35:21;20.90;;;12.77;;
42194;SDS011;27863;49.440;11.102;2023-03-02T10:38:23;20.33;;;12.07;;
42194;SDS011;27863;49.440;11.102;2023-03-02T10:41:29;18.33;;;11.23;;
42194;SDS011;27863;49.440;11.102;2023-03-02T10:44:51;19.73;;;11.50;;
42194;SDS011;27863;49.440;11.102;2023-03-02T10:48:02;13.60;;;12.30;;
42194;SDS011;27863;49.440;11.102;2023-03-02T10:51:18;30.23;;;12.73;;
42194;SDS011;27863;49.440;11.102;2023-03-02T10:54:23;14.00;;;11.53;;
42194;SDS011;27863;49.440;11.102;2023-03-02T11:00:36;14.80;;;9.63;;
42194;SDS011;27863;49.440;11.102;2023-03-02T11:03:37;12.53;;;10.23;;
42194;SDS011;27863;49.440;11.102;2023-03-02T11:06:41;35.07;;;11.70;;
42194;SDS011;27863;49.440;11.102;2023-03-02T11:09:58;15.50;;;11.00;;
42194;SDS011;27863;49.440;11.102;2023-03-02T11:13:02;13.67;;;10.70;;
42194;SDS011;27863;49.440;11.102;2023-03-02T11:19:28;11.20;;;8.83;;
42194;SDS011;27863;49.440;11.102;2023-03-02T11:22:33;9.87;;;8.90;;
42194;SDS011;27863;49.440;11.102;2023-03-02T11:25:48;11.77;;;9.83;;
42194;SDS011;27863;49.440;11.102;2023-03-02T11:35:29;16.90;;;8.30;;
42194;SDS011;27863;49.440;11.102;2023-03-02T11:41:42;11.93;;;9.03;;
42194;SDS011;27863;49.440;11.102;2023-03-02T11:44:45;13.77;;;9.00;;
42194;SDS011;27863;49.440;11.102;2023-03-02T11:47:48;16.73;;;7.93;;
42194;SDS011;27863;49.440;11.102;2023-03-02T11:50:54;10.50;;;7.33;;
42194;SDS011;27863;49.440;11.102;2023-03-02T11:56:58;8.77;;;7.40;;
42194;SDS011;27863;49.440;11.102;2023-03-02T12:00:13;20.27;;;8.93;;
42194;SDS011;27863;49.440;11.102;2023-03-02T12:06:36;11.17;;;6.77;;
42194;SDS011;27863;49.440;11.102;2023-03-02T12:09:38;7.50;;;6.70;;
42194;SDS011;27863;49.440;11.102;2023-03-02T12:12:45;12.47;;;7.80;;
42194;SDS011;27863;49.440;11.102;2023-03-02T12:15:48;9.93;;;6.70;;
42194;SDS011;27863;49.440;11.102;2023-03-02T12:18:52;10.77;;;7.70;;
42194;SDS011;27863;49.440;11.102;2023-03-02T12:21:55;10.47;;;7.00;;
42194;SDS011;27863;49.440;11.102;2023-03-02T12:25:01;13.57;;;7.20;;
42194;SDS011;27863;49.440;11.102;2023-03-02T12:28:04;9.83;;;6.40;;
42194;SDS011;27863;49.440;11.102;2023-03-02T12:31:09;17.33;;;8.30;;
42194;SDS011;27863;49.440;11.102;2023-03-02T12:41:02;7.00;;;5.93;;
42194;SDS011;27863;49.440;11.102;2023-03-02T12:47:27;8.77;;;6.90;;
42194;SDS011;27863;49.440;11.102;2023-03-02T12:50:30;9.33;;;7.23;;
42194;SDS011;27863;49.440;11.102;2023-03-02T12:53:31;8.53;;;6.90;;
42194;SDS011;27863;49.440;11.102;2023-03-02T12:56:32;8.97;;;6.33;;
42194;SDS011;27863;49.440;11.102;2023-03-02T12:59:34;8.77;;;7.03;;
42194;SDS011;27863;49.440;11.102;2023-03-02T13:02:36;13.50;;;8.20;;
42194;SDS011;27863;49.440;11.102;2023-03-02T13:05:45;14.00;;;8.03;;
42194;SDS011;27863;49.440;11.102;2023-03-02T13:08:49;11.63;;;7.50;;
42194;SDS011;27863;49.440;11.102;2023-03-02T13:11:53;16.97;;;8.57;;
42194;SDS011;27863;49.440;11.102;2023-03-02T13:14:55;8.90;;;7.47;;
42194;SDS011;27863;49.440;11.102;2023-03-02T13:17:57;13.10;;;8.23;;
42194;SDS011;27863;49.440;11.102;2023-03-02T13:20:59;12.07;;;8.03;;
42194;SDS011;27863;49.440;11.102;2023-03-02T13:24:01;16.43;;;7.03;;
42194;SDS011;27863;49.440;11.102;2023-03-02T13:27:05;9.73;;;7.57;;
42194;SDS011;27863;49.440;11.102;2023-03-02T13:30:20;8.60;;;6.47;;
42194;SDS011;27863;49.440;11.102;2023-03-02T13:33:27;8.63;;;6.47;;
42194;SDS011;27863;49.440;11.102;2023-03-02T13:36:32;12.60;;;7.10;;
42194;SDS011;27863;49.440;11.102;2023-03-02T13:39:35;7.63;;;6.17;;
42194;SDS011;27863;49.440;11.102;2023-03-02T13:42:37;15.37;;;6.97;;
42194;SDS011;27863;49.440;11.102;2023-03-02T13:45:40;12.93;;;6.63;;
42194;SDS011;27863;49.440;11.102;2023-03-02T13:49:00;10.10;;;7.17;;
42194;SDS011;27863;49.440;11.102;2023-03-02T13:52:07;9.10;;;6.73;;
42194;SDS011;27863;49.440;11.102;2023-03-02T13:55:16;10.27;;;7.23;;
42194;SDS011;27863;49.440;11.102;2023-03-02T13:58:18;9.30;;;6.60;;
42194;SDS011;27863;49.440;11.102;2023-03-02T14:01:18;10.37;;;6.17;;
42194;SDS011;27863;49.440;11.102;2023-03-02T14:04:20;14.13;;;7.40;;
42194;SDS011;27863;49.440;11.102;2023-03-02T14:07:22;9.40;;;6.90;;
42194;SDS011;27863;49.440;11.102;2023-03-02T14:10:22;10.73;;;5.70;;
42194;SDS011;27863;49.440;11.102;2023-03-02T14:13:24;11.80;;;6.33;;
42194;SDS011;27863;49.440;11.102;2023-03-02T14:16:27;18.03;;;6.67;;
42194;SDS011;27863;49.440;11.102;2023-03-02T14:19:28;11.77;;;6.70;;
42194;SDS011;27863;49.440;11.102;2023-03-02T14:22:29;9.37;;;6.20;;
42194;SDS011;27863;49.440;11.102;2023-03-02T14:25:31;10.30;;;6.00;;
42194;SDS011;27863;49.440;11.102;2023-03-02T14:28:31;11.77;;;6.20;;
42194;SDS011;27863;49.440;11.102;2023-03-02T14:31:35;8.43;;;6.43;;
42194;SDS011;27863;49.440;11.102;2023-03-02T14:34:37;17.17;;;6.83;;
42194;SDS011;27863;49.440;11.102;2023-03-02T14:37:40;8.80;;;6.20;;
42194;SDS011;27863;49.440;11.102;2023-03-02T14:40:45;12.10;;;6.43;;
42194;SDS011;27863;49.440;11.102;2023-03-02T14:43:46;8.83;;;6.63;;
42194;SDS011;27863;49.440;11.102;2023-03-02T14:46:47;14.53;;;5.80;;
42194;SDS011;27863;49.440;11.102;2023-03-02T14:49:47;6.73;;;5.47;;
42194;SDS011;27863;49.440;11.102;2023-03-02T14:52:52;9.00;;;6.10;;
42194;SDS011;27863;49.440;11.102;2023-03-02T14:55:54;18.30;;;6.83;;
42194;SDS011;27863;49.440;11.102;2023-03-02T14:58:54;10.40;;;5.77;;
42194;SDS011;27863;49.440;11.102;2023-03-02T15:01:55;10.20;;;6.23;;
42194;SDS011;27863;49.440;11.102;2023-03-02T15:04:55;8.93;;;6.27;;
42194;SDS011;27863;49.440;11.102;2023-03-02T15:07:56;8.83;;;6.27;;
42194;SDS011;27863;49.440;11.102;2023-03-02T15:10:58;9.43;;;5.70;;
42194;SDS011;27863;49.440;11.102;2023-03-02T15:14:00;8.27;;;6.17;;
42194;SDS011;27863;49.440;11.102;2023-03-02T15:17:04;7.43;;;6.20;;
42194;SDS011;27863;49.440;11.102;2023-03-02T15:20:05;7.50;;;5.77;;
42194;SDS011;27863;49.440;11.102;2023-03-02T15:23:06;12.23;;;6.77;;
42194;SDS011;27863;49.440;11.102;2023-03-02T15:26:08;8.50;;;5.30;;
42194;SDS011;27863;49.440;11.102;2023-03-02T15:29:09;8.93;;;5.80;;
42194;SDS011;27863;49.440;11.102;2023-03-02T15:32:09;8.60;;;5.70;;
42194;SDS011;27863;49.440;11.102;2023-03-02T15:35:10;11.90;;;5.70;;
42194;SDS011;27863;49.440;11.102;2023-03-02T15:38:11;8.93;;;6.17;;
42194;SDS011;27863;49.440;11.102;2023-03-02T15:41:12;11.70;;;6.00;;
42194;SDS011;27863;49.440;11.102;2023-03-02T15:44:18;11.07;;;6.30;;
42194;SDS011;27863;49.440;11.102;2023-03-02T15:47:22;8.73;;;5.77;;
42194;SDS011;27863;49.440;11.102;2023-03-02T15:50:22;8.23;;;5.63;;
42194;SDS011;27863;49.440;11.102;2023-03-02T15:53:23;5.97;;;4.80;;
42194;SDS011;27863;49.440;11.102;2023-03-02T15:56:24;8.17;;;5.57;;
42194;SDS011;27863;49.440;11.102;2023-03-02T15:59:25;7.03;;;5.57;;
42194;SDS011;27863;49.440;11.102;2023-03-02T16:02:28;12.63;;;6.03;;
42194;SDS011;27863;49.440;11.102;2023-03-02T16:05:29;8.50;;;6.10;;
42194;SDS011;27863;49.440;11.102;2023-03-02T16:08:29;10.60;;;5.87;;
42194;SDS011;27863;49.440;11.102;2023-03-02T16:11:30;7.43;;;5.93;;
42194;SDS011;27863;49.440;11.102;2023-03-02T16:14:30;12.47;;;5.57;;
42194;SDS011;27863;49.440;11.102;2023-03-02T16:17:31;9.67;;;5.80;;
42194;SDS011;27863;49.440;11.102;2023-03-02T16:20:36;7.93;;;6.20;;
42194;SDS011;27863;49.440;11.102;2023-03-02T16:23:38;10.17;;;6.67;;
42194;SDS011;27863;49.440;11.102;2023-03-02T16:26:39;12.53;;;6.57;;
42194;SDS011;27863;49.440;11.102;2023-03-02T16:29:39;11.73;;;7.20;;
42194;SDS011;27863;49.440;11.102;2023-03-02T16:32:40;9.27;;;7.07;;
42194;SDS011;27863;49.440;11.102;2023-03-02T16:35:41;7.97;;;6.57;;
42194;SDS011;27863;49.440;11.102;2023-03-02T16:38:42;9.17;;;5.87;;
42194;SDS011;27863;49.440;11.102;2023-03-02T16:41:42;12.13;;;6.80;;
42194;SDS011;27863;49.440;11.102;2023-03-02T16:44:45;15.40;;;7.03;;
42194;SDS011;27863;49.440;11.102;2023-03-02T16:47:48;10.40;;;6.47;;
42194;SDS011;27863;49.440;11.102;2023-03-02T16:50:53;8.67;;;7.63;;
42194;SDS011;27863;49.440;11.102;2023-03-02T16:53:56;9.53;;;6.73;;
42194;SDS011;27863;49.440;11.102;2023-03-02T16:56:57;9.20;;;6.87;;
42194;SDS011;27863;49.440;11.102;2023-03-02T16:59:58;13.50;;;7.40;;
42194;SDS011;27863;49.440;11.102;2023-03-02T17:02:59;11.33;;;7.37;;
42194;SDS011;27863;49.440;11.102;2023-03-02T17:06:00;11.37;;;6.40;;
42194;SDS011;27863;49.440;11.102;2023-03-02T17:09:00;8.93;;;6.90;;
42194;SDS011;27863;49.440;11.102;2023-03-02T17:12:04;11.33;;;7.70;;
42194;SDS011;27863;49.440;11.102;2023-03-02T17:15:04;10.13;;;6.50;;
42194;SDS011;27863;49.440;11.102;2023-03-02T17:18:05;9.40;;;7.33;;
42194;SDS011;27863;49.440;11.102;2023-03-02T17:21:08;12.53;;;7.47;;
42194;SDS011;27863;49.440;11.102;2023-03-02T17:24:09;19.47;;;8.87;;
42194;SDS011;27863;49.440;11.102;2023-03-02T17:27:10;8.53;;;7.43;;
42194;SDS011;27863;49.440;11.102;2023-03-02T17:30:12;18.03;;;8.83;;
42194;SDS011;27863;49.440;11.102;2023-03-02T17:33:14;9.37;;;7.33;;
42194;SDS011;27863;49.440;11.102;2023-03-02T17:36:17;13.97;;;8.13;;
42194;SDS011;27863;49.440;11.102;2023-03-02T17:39:18;14.90;;;8.50;;
42194;SDS011;27863;49.440;11.102;2023-03-02T17:42:18;16.10;;;9.20;;
42194;SDS011;27863;49.440;11.102;2023-03-02T17:45:21;11.03;;;8.47;;
42194;SDS011;27863;49.440;11.102;2023-03-02T17:48:23;9.80;;;8.87;;
42194;SDS011;27863;49.440;11.102;2023-03-02T17:51:25;10.70;;;8.30;;
42194;SDS011;27863;49.440;11.102;2023-03-02T17:54:27;13.07;;;8.97;;
42194;SDS011;27863;49.440;11.102;2023-03-02T17:57:27;16.53;;;9.03;;
42194;SDS011;27863;49.440;11.102;2023-03-02T18:00:28;10.60;;;8.23;;
42194;SDS011;27863;49.440;11.102;2023-03-02T18:03:28;14.03;;;9.63;;
42194;SDS011;27863;49.440;11.102;2023-03-02T18:06:29;12.53;;;8.87;;
42194;SDS011;27863;49.440;11.102;2023-03-02T18:09:30;11.57;;;9.13;;
42194;SDS011;27863;49.440;11.102;2023-03-02T18:12:30;15.37;;;8.73;;
42194;SDS011;27863;49.440;11.102;2023-03-02T18:15:31;12.63;;;8.40;;
42194;SDS011;27863;49.440;11.102;2023-03-02T18:18:33;22.40;;;9.53;;
42194;SDS011;27863;49.440;11.102;2023-03-02T18:21:34;10.43;;;8.07;;
42194;SDS011;27863;49.440;11.102;2023-03-02T18:24:35;12.10;;;8.53;;
42194;SDS011;27863;49.440;11.102;2023-03-02T18:27:35;18.23;;;11.20;;